Terminal Aerodrome Forecast
Issued by NWS Pueblo, CO

Home | Current Version | Previous Version | Text Only | Print | Product List | Glossary On
Versions: 1 2 3 4 5 6 7 8 9 10 11 12 13 14 15 16 17 18 19 20 21 22 23 24 25 26 27 28 29 30 31 32 33 34 35 36 37 38 39 40
000
FTUS45 KPUB 281120
TAFCOS
TAF
KCOS 281120Z 2812/2912 03016KT P6SM FEW140 SCT200
     FM281600 17013KT P6SM FEW140 SCT200
     FM282100 14015G25KT P6SM SCT100 SCT200
     FM290200 10012KT P6SM FEW060 SCT100
     FM290500 03012KT P6SM SCT040 BKN080=

USA.gov is the U.S. government's official web portal to all federal, state and local government web resources and services.